Latest Weather Observations for Holmes Reef

IDQ60801

Issued at 11:02 pm EST Wednesday 25 May 2016 (issued every 30 minutes, with the page automatically refreshed every 10 minutes)

About weather observations | Map of weather stations | Latest weather observations for QLD | Other Formats
Station Details ID: 200732 Name: HOLMES REEF Lat: -16.47 Lon: 147.87 Height: 1.9 m
Data from the previous 72 hours. | See also: Recent months at Holmes Reef
Date/Time
EST
Temp
°C
App
Temp
°C
Dew
Point
Rel
Hum
%
Delta-T
°C
Wind Press
QNH
hPa
Press
MSL
hPa
Rain
since 9 am
mm
Dir
 
Spd
km/h
Gust
km/h
Spd
kts
Gust
kts
25/11:00pm 25.4 - - - - ESE 30 35 16 19 1015.3 - -
25/10:30pm 26.0 - - - - ESE 24 28 13 15 1015.4 - -
25/10:15pm 25.9 - - - - ESE 28 - 15 - - 1015.1 -
25/10:00pm 25.7 - - - - SE 26 32 14 17 1015.3 - -
25/09:30pm 24.9 - - - - ESE 24 32 13 17 1015.4 - -
25/09:15pm 26.2 - - - - SE 26 - 14 - - 1015.0 -
25/09:00pm 26.0 - - - - SE 24 28 13 15 1015.1 - -
25/08:30pm 25.8 - - - - E 19 22 10 12 1015.1 - -
25/08:15pm 25.7 - - - - ESE 24 - 13 - - 1014.6 -
25/08:00pm 25.7 - - - - ESE 22 26 12 14 1014.8 - -
25/07:30pm 25.0 - - - - ESE 24 28 13 15 1014.6 - -
25/07:15pm 24.6 - - - - ESE 26 - 14 - - 1014.2 -
25/07:00pm 24.4 - - - - ESE 33 37 18 20 1014.3 - -
25/06:30pm 25.1 - - - - ESE 32 35 17 19 1014.0 - -
25/06:15pm 25.1 - - - - E 30 - 16 - - 1013.5 -
25/06:00pm 25.4 - - - - E 30 32 16 17 1013.7 - -
25/05:30pm 25.9 - - - - E 28 32 15 17 1013.3 - -
25/05:15pm 26.1 - - - - SE 26 - 14 - - 1012.9 -
25/05:00pm 26.2 - - - - SSE 28 32 15 17 1013.0 - -
25/04:30pm 26.1 - - - - SSE 26 28 14 15 1012.8 - -
25/04:15pm 26.1 - - - - SSE 26 - 14 - - 1012.4 -
25/04:00pm 26.4 - - - - SSE 26 30 14 16 1012.6 - -
25/03:30pm 26.4 - - - - SE 30 33 16 18 1012.4 - -
25/03:15pm 26.1 - - - - SE 28 - 15 - - 1012.2 -
25/03:00pm 26.6 - - - - SE 24 30 13 16 1012.8 - -
25/02:30pm 26.9 - - - - SE 26 32 14 17 1012.8 - -
25/02:15pm 26.9 - - - - SE 28 - 15 - - 1012.5 -
25/02:00pm 26.8 - - - - ESE 28 32 15 17 1012.8 - -
25/01:30pm 26.7 - - - - SE 28 30 15 16 1012.9 - -
25/01:15pm 26.8 - - - - SE 24 - 13 - - 1013.1 -
25/01:00pm 26.8 - - - - SE 24 28 13 15 1013.8 - -
25/12:30pm 26.8 - - - - SE 22 26 12 14 1014.3 - -
25/12:15pm 26.7 - - - - SE 26 - 14 - - 1013.8 -
25/12:00pm 26.6 - - - - SE 26 30 14 16 1014.1 - -
25/11:30am 26.6 - - - - ESE 26 28 14 15 1014.5 - -
25/11:15am 26.7 - - - - ESE 26 - 14 - - 1014.4 -
25/11:00am 26.5 - - - - SE 26 30 14 16 1014.9 - -
25/10:30am 26.5 - - - - SE 26 30 14 16 1015.2 - -
25/10:15am 26.5 - - - - SE 26 - 14 - - 1015.1 -
25/10:00am 26.6 - - - - SE 26 30 14 16 1015.4 - -
25/09:30am 26.4 - - - - ESE 26 30 14 16 1015.3 - -
25/09:15am 26.4 - - - - SE 26 - 14 - - 1015.4 -
25/09:00am 26.5 - - - - ESE 24 30 13 16 1015.4 - -
25/08:30am 26.6 - - - - ESE 24 30 13 16 1015.1 - -
25/08:15am 26.4 - - - - ESE 24 - 13 - - 1014.8 -
25/08:00am 26.6 - - - - SE 26 28 14 15 1015.0 - -
25/07:30am 26.4 - - - - SE 26 30 14 16 1014.8 - -
25/07:15am 26.4 - - - - SE 28 - 15 - - 1014.1 -
25/07:00am 26.4 - - - - SE 28 33 15 18 1014.1 - -
25/06:30am 26.4 - - - - SE 28 32 15 17 1014.0 - -
25/06:15am 26.6 - - - - SE 28 - 15 - - 1013.7 -
25/06:00am 26.6 - - - - ESE 28 32 15 17 1013.7 - -
25/05:30am 26.4 - - - - SE 28 32 15 17 1013.3 - -
25/05:15am 26.3 - - - - SE 28 - 15 - - 1013.0 -
25/05:00am 26.4 - - - - SE 28 33 15 18 1013.4 - -
25/04:30am 26.3 - - - - SE 30 37 16 20 1012.9 - -
25/04:15am 26.5 - - - - SE 32 - 17 - - 1012.8 -
25/04:00am 26.3 - - - - SE 30 33 16 18 1013.3 - -
25/03:30am 26.4 - - - - SE 30 32 16 17 1013.7 - -
25/03:15am 26.5 - - - - SE 30 - 16 - - 1013.2 -
25/03:00am 26.4 - - - - SE 28 32 15 17 1013.7 - -
25/02:30am 26.7 - - - - SE 30 35 16 19 1013.9 - -
25/02:15am 26.7 - - - - SE 28 - 15 - - 1013.8 -
25/02:00am 26.6 - - - - SE 28 33 15 18 1014.4 - -
25/01:30am 26.9 - - - - ESE 28 32 15 17 1014.6 - -
25/01:15am 26.8 - - - - ESE 30 - 16 - - 1014.5 -
25/01:00am 26.7 - - - - ESE 30 32 16 17 1015.0 - -
25/12:30am 26.9 - - - - ESE 30 35 16 19 1014.9 - -
25/12:15am 26.8 - - - - ESE 30 - 16 - - 1014.6 -
25/12:00am 26.9 - - - - ESE 30 35 16 19 1015.0 - -
 
Date/Time
EST
Temp
°C
App
Temp
°C
Dew
Point
Rel
Hum
%
Delta-T
°C
Wind Press
QNH
hPa
Press
MSL
hPa
Rain
since 9 am
mm
Dir
 
Spd
km/h
Gust
km/h
Spd
kts
Gust
kts
24/11:30pm 27.0 - - - - ESE 30 35 16 19 1015.1 - -
24/11:15pm 26.7 - - - - ESE 33 - 18 - - 1014.9 -
24/11:00pm 27.0 - - - - ESE 33 39 18 21 1015.1 - -
24/10:30pm 26.7 - - - - ESE 33 39 18 21 1015.2 - -
24/10:15pm 26.9 - - - - ESE 35 - 19 - - 1015.1 -
24/10:00pm 27.0 - - - - ESE 33 39 18 21 1015.3 - -
24/09:30pm 26.9 - - - - SE 32 35 17 19 1015.8 - -
24/09:15pm 26.7 - - - - SE 32 - 17 - - 1015.5 -
24/09:00pm 26.9 - - - - SE 33 37 18 20 1015.5 - -
24/08:30pm 27.1 - - - - ESE 32 35 17 19 1015.2 - -
24/08:15pm 27.0 - - - - SE 32 - 17 - - 1014.8 -
24/08:00pm 26.8 - - - - ESE 32 35 17 19 1015.1 - -
24/07:30pm 27.1 - - - - SE 30 35 16 19 1014.7 - -
24/07:15pm 26.8 - - - - SE 30 - 16 - - 1014.3 -
24/07:00pm 26.7 - - - - SE 30 33 16 18 1014.5 - -
24/06:30pm 26.9 - - - - ESE 30 33 16 18 1014.2 - -
24/06:15pm 26.9 - - - - SE 30 - 16 - - 1013.9 -
24/06:00pm 26.7 - - - - SE 30 33 16 18 1013.9 - -
24/05:30pm 26.6 - - - - SE 30 35 16 19 1013.8 - -
24/05:15pm 26.9 - - - - SE 30 - 16 - - 1013.4 -
24/05:00pm 26.8 - - - - SE 30 35 16 19 1013.5 - -
24/04:30pm 26.7 - - - - SE 30 33 16 18 1013.3 - -
24/04:15pm 26.8 - - - - SE 28 - 15 - - 1013.1 -
24/04:00pm 26.9 - - - - SE 30 35 16 19 1013.3 - -
24/03:30pm 26.9 - - - - SE 30 35 16 19 1013.3 - -
24/03:15pm 26.7 - - - - SE 30 - 16 - - 1012.9 -
24/03:00pm 26.8 - - - - SE 32 35 17 19 1013.0 - -
24/02:30pm 26.6 - - - - SE 32 35 17 19 1013.1 - -
24/02:15pm 26.4 - - - - SE 32 - 17 - - 1012.8 -
24/02:00pm 27.0 - - - - SE 30 35 16 19 1013.3 - -
24/01:30pm 26.8 - - - - SE 28 32 15 17 1013.7 - -
24/01:15pm 26.9 - - - - SE 28 - 15 - - 1013.7 -
24/01:00pm 26.8 - - - - ESE 28 32 15 17 1014.2 - -
24/12:30pm 27.0 - - - - SE 28 32 15 17 1014.7 - -
24/12:15pm 27.1 - - - - SE 26 - 14 - - 1014.6 -
24/12:00pm 27.2 - - - - SE 30 32 16 17 1015.0 - -
24/11:30am 27.0 - - - - SE 30 32 16 17 1015.1 - -
24/11:15am 27.1 - - - - ESE 30 - 16 - - 1014.9 -
24/11:00am 27.0 - - - - ESE 32 37 17 20 1015.5 - -
24/10:30am 26.9 - - - - ESE 30 35 16 19 1015.7 - -
24/10:15am 26.8 - - - - SE 33 - 18 - - 1015.4 -
24/10:00am 26.9 - - - - ESE 32 39 17 21 1015.8 - -
24/09:30am 26.7 - - - - ESE 35 41 19 22 1015.6 - -
24/09:15am 26.6 - - - - ESE 35 - 19 - - 1015.2 -
24/09:00am 26.9 - - - - ESE 35 39 19 21 1015.5 - -
24/08:30am 26.5 - - - - SE 37 43 20 23 1015.4 - -
24/08:15am 26.5 - - - - SE 37 - 20 - - 1015.0 -
24/08:00am 26.4 - - - - SE 37 43 20 23 1015.0 - -
24/07:30am 26.6 - - - - SE 37 43 20 23 1014.7 - -
24/07:15am 26.3 - - - - SE 39 - 21 - - 1014.2 -
24/07:00am 26.3 - - - - SE 41 50 22 27 1014.1 - -
24/06:30am 25.9 - - - - SE 39 44 21 24 1014.1 - -
24/06:15am 25.9 - - - - SE 39 - 21 - - 1013.7 -
24/06:00am 25.9 - - - - SE 43 50 23 27 1013.9 - -
24/05:30am 25.6 - - - - SE 43 48 23 26 1013.6 - -
24/05:15am 25.5 - - - - ESE 43 - 23 - - 1013.2 -
24/05:00am 25.2 - - - - SE 44 52 24 28 1013.6 - -
24/04:30am 25.4 - - - - SE 41 46 22 25 1013.5 - -
24/04:15am 25.2 - - - - SE 43 - 23 - - 1013.2 -
24/04:00am 25.4 - - - - SE 43 50 23 27 1013.5 - -
24/03:30am 25.5 - - - - ESE 39 44 21 24 1013.6 - -
24/03:15am 25.6 - - - - SE 43 - 23 - - 1013.2 -
24/03:00am 25.5 - - - - ESE 44 50 24 27 1013.6 - -
24/02:30am 25.6 - - - - SE 41 48 22 26 1013.6 - -
24/02:15am 25.4 - - - - ESE 43 - 23 - - 1013.3 -
24/02:00am 25.6 - - - - ESE 43 50 23 27 1013.6 - -
24/01:30am 26.1 - - - - ESE 39 44 21 24 1014.2 - -
24/01:15am 26.2 - - - - ESE 35 - 19 - - 1014.2 -
24/01:00am 26.1 - - - - ESE 37 41 20 22 1014.6 - -
24/12:30am 26.3 - - - - ESE 37 41 20 22 1014.8 - -
24/12:15am 26.2 - - - - ESE 33 - 18 - - 1014.7 -
24/12:00am 26.2 - - - - ESE 32 37 17 20 1015.2 - -
 
Date/Time
EST
Temp
°C
App
Temp
°C
Dew
Point
Rel
Hum
%
Delta-T
°C
Wind Press
QNH
hPa
Press
MSL
hPa
Rain
since 9 am
mm
Dir
 
Spd
km/h
Gust
km/h
Spd
kts
Gust
kts
23/11:30pm 26.6 - - - - ESE 32 35 17 19 1015.6 - -
23/11:15pm 26.4 - - - - ESE 32 - 17 - - 1015.2 -
23/11:00pm 26.4 - - - - ESE 28 32 15 17 1015.5 - -
23/10:30pm 26.4 - - - - ESE 32 35 17 19 1015.7 - -
23/10:15pm 26.1 - - - - ESE 32 - 17 - - 1015.5 -
23/10:00pm 26.1 - - - - SE 32 37 17 20 1015.9 - -
23/09:30pm 26.6 - - - - ESE 35 41 19 22 1015.7 - -
23/09:15pm 26.5 - - - - ESE 35 - 19 - - 1015.6 -
23/09:00pm 26.6 - - - - SE 30 35 16 19 1016.0 - -
23/08:30pm 26.5 - - - - ESE 35 39 19 21 1015.4 - -
23/08:15pm 26.5 - - - - ESE 37 - 20 - - 1014.9 -
23/08:00pm 26.6 - - - - SE 39 43 21 23 1014.9 - -
23/07:30pm 26.6 - - - - SE 35 41 19 22 1014.7 - -
23/07:15pm 26.8 - - - - ESE 33 - 18 - - 1014.4 -
23/07:00pm 26.8 - - - - SE 32 37 17 20 1014.6 - -
23/06:30pm 26.6 - - - - ESE 33 37 18 20 1014.3 - -
23/06:15pm 26.9 - - - - ESE 32 - 17 - - 1013.9 -
23/06:00pm 26.7 - - - - ESE 32 37 17 20 1014.1 - -
23/05:30pm 26.9 - - - - ESE 33 39 18 21 1013.7 - -
23/05:15pm 26.8 - - - - ESE 35 - 19 - - 1013.3 -
23/05:00pm 26.8 - - - - ESE 33 39 18 21 1013.6 - -
23/04:30pm 27.1 - - - - ESE 35 39 19 21 1013.5 - -
23/04:15pm 27.2 - - - - SE 33 - 18 - - 1013.1 -
23/04:00pm 27.1 - - - - SE 32 39 17 21 1013.5 - -
23/03:30pm 27.1 - - - - SE 32 35 17 19 1013.7 - -
23/03:15pm 27.1 - - - - ESE 30 - 16 - - 1013.3 -
23/03:00pm 26.9 - - - - ESE 30 35 16 19 1013.6 - -
23/02:30pm 27.0 - - - - ESE 33 39 18 21 1013.5 - -
23/02:15pm 27.1 - - - - ESE 33 - 18 - - 1013.2 -
23/02:00pm 27.0 - - - - ESE 33 39 18 21 1013.4 - -
23/01:30pm 27.0 - - - - ESE 35 39 19 21 1013.5 - -
23/01:15pm 27.2 - - - - ESE 33 - 18 - - 1013.4 -
23/01:00pm 27.1 - - - - ESE 37 43 20 23 1013.8 - -
23/12:51pm 26.9 - - - - ESE 37 43 20 23 1014.0 - -
23/12:30pm 26.3 - - - - SSE 32 37 17 20 1014.4 - -
23/12:15pm 26.6 - - - - SE 32 - 17 - - 1014.3 -
23/12:00pm 27.2 - - - - ESE 30 33 16 18 1014.7 - -
23/11:30am 27.3 - - - - ESE 35 39 19 21 1014.6 - -
23/11:15am 27.3 - - - - ESE 32 - 17 - - 1014.8 -
23/11:00am 27.3 - - - - ESE 33 39 18 21 1015.2 - -
23/10:30am 27.2 - - - - ESE 33 39 18 21 1015.4 - -
23/10:15am 27.2 - - - - ESE 33 - 18 - - 1014.9 -
23/10:00am 27.1 - - - - ESE 37 43 20 23 1015.2 - -
23/09:30am 27.4 - - - - ESE 37 43 20 23 1015.3 - -
23/09:15am 27.1 - - - - ESE 37 - 20 - - 1014.8 -
23/09:00am 27.3 - - - - ESE 37 41 20 22 1015.2 - -
23/08:30am 27.2 - - - - ESE 37 43 20 23 1015.0 - -
23/08:15am 27.0 - - - - ESE 39 - 21 - - 1014.6 -
23/08:00am 27.1 - - - - ESE 37 44 20 24 1014.8 - -
23/07:30am 26.9 - - - - ESE 41 44 22 24 1014.1 - -
23/07:15am 26.8 - - - - ESE 37 - 20 - - 1014.2 -
23/07:00am 27.0 - - - - ESE 39 44 21 24 1014.5 - -
23/06:30am 27.0 - - - - ESE 41 46 22 25 1014.2 - -
23/06:15am 27.1 - - - - ESE 41 - 22 - - 1013.9 -
23/06:00am 27.0 - - - - ESE 39 44 21 24 1014.2 - -
23/05:30am 26.8 - - - - ESE 41 46 22 25 1013.8 - -
23/05:15am 26.9 - - - - ESE 41 - 22 - - 1013.2 -
23/05:00am 26.8 - - - - ESE 41 46 22 25 1013.3 - -
23/04:30am 26.9 - - - - ESE 39 46 21 25 1013.2 - -
23/04:15am 26.9 - - - - ESE 43 - 23 - - 1012.7 -
23/04:00am 26.7 - - - - ESE 43 50 23 27 1012.9 - -
23/03:30am 26.0 - - - - ESE 30 44 16 24 1012.9 - -
23/03:15am 25.5 - - - - ESE 39 - 21 - - 1012.9 -
23/03:00am 26.7 - - - - ESE 39 46 21 25 1013.0 - -
23/02:30am 26.7 - - - - ESE 37 44 20 24 1013.4 - -
23/02:15am 27.3 - - - - ESE 32 - 17 - - 1013.4 -
23/02:00am 27.0 - - - - ESE 32 37 17 20 1014.1 - -
23/01:30am 27.1 - - - - ESE 35 41 19 22 1013.9 - -
23/01:15am 27.3 - - - - ESE 35 - 19 - - 1013.7 -
23/01:00am 27.2 - - - - ESE 39 46 21 25 1014.0 - -
23/12:30am 27.2 - - - - ESE 41 46 22 25 1014.2 - -
23/12:15am 27.2 - - - - ESE 39 - 21 - - 1014.2 -
23/12:00am 27.2 - - - - ESE 43 48 23 26 1014.4 - -
 
Date/Time
EST
Temp
°C
App
Temp
°C
Dew
Point
Rel
Hum
%
Delta-T
°C
Wind Press
QNH
hPa
Press
MSL
hPa
Rain
since 9 am
mm
Dir
 
Spd
km/h
Gust
km/h
Spd
kts
Gust
kts
22/11:30pm 27.4 - - - - E 41 46 22 25 1014.8 - -
22/11:15pm 27.3 - - - - E 37 - 20 - - 1014.7 -

Other Formats:

Comma delimited format used in spreadsheet applications
http://www.bom.gov.au/fwo/IDQ60801/IDQ60801.94289.axf

JavaScript Object Notation format (JSON) in row-major order
http://www.bom.gov.au/fwo/IDQ60801/IDQ60801.94289.json